createdAt,value
2022-08-04T00:01:22.866Z,101293.84
2022-08-04T00:04:01.136Z,101285.66
2022-08-04T00:06:40.429Z,101279.03
2022-08-04T00:09:14.878Z,101281.03
2022-08-04T00:11:47.161Z,101281.56
2022-08-04T00:14:17.950Z,101291.06
2022-08-04T00:16:49.327Z,101282.91
2022-08-04T00:19:21.746Z,101287.28
2022-08-04T00:21:57.394Z,101284.41
2022-08-04T00:24:25.665Z,101280.63
2022-08-04T00:26:55.391Z,101278.66
2022-08-04T00:29:26.328Z,101274.69
2022-08-04T00:31:57.787Z,101272.00
2022-08-04T00:34:27.916Z,101275.88
2022-08-04T00:36:56.972Z,101272.75
2022-08-04T00:39:25.552Z,101275.88
2022-08-04T00:42:27.223Z,101275.28
2022-08-04T00:45:14.492Z,101275.63
2022-08-04T00:48:00.118Z,101275.72
2022-08-04T00:50:38.550Z,101266.75
2022-08-04T00:53:09.489Z,101273.13
2022-08-04T00:55:50.387Z,101266.28
2022-08-04T00:58:34.378Z,101264.38
2022-08-04T01:01:06.805Z,101267.41
2022-08-04T01:03:51.729Z,101274.28
2022-08-04T01:06:31.614Z,101262.59
2022-08-04T01:09:12.705Z,101258.09
2022-08-04T01:12:14.159Z,101262.81
2022-08-04T01:15:06.825Z,101261.72
2022-08-04T01:17:49.550Z,101253.88
2022-08-04T01:20:22.921Z,101259.69
2022-08-04T01:23:09.580Z,101255.09
2022-08-04T01:26:42.568Z,101257.72
2022-08-04T01:29:02.236Z,101244.84
2022-08-04T01:31:37.678Z,101254.91
2022-08-04T01:34:07.795Z,101250.84
2022-08-04T01:36:36.757Z,101252.88
2022-08-04T01:39:28.179Z,101247.13
2022-08-04T01:41:58.621Z,101247.16
2022-08-04T01:44:29.705Z,101248.53
2022-08-04T01:46:58.241Z,101245.88
2022-08-04T01:49:30.244Z,101242.81
2022-08-04T01:52:11.342Z,101241.38
2022-08-04T01:54:43.359Z,101240.22
2022-08-04T01:57:37.033Z,101242.66
2022-08-04T02:00:02.600Z,101234.28
2022-08-04T02:02:32.186Z,101240.97
2022-08-04T02:05:00.296Z,101240.91
2022-08-04T02:07:47.035Z,101235.91
2022-08-04T02:10:28.832Z,101230.31
2022-08-04T02:13:11.521Z,101237.03
2022-08-04T02:15:54.544Z,101237.53
2022-08-04T02:18:28.965Z,101238.13
2022-08-04T02:20:59.849Z,101244.56
2022-08-04T02:23:35.860Z,101239.56
2022-08-04T02:26:06.490Z,101239.81
2022-08-04T02:28:41.125Z,101239.22
2022-08-04T02:31:29.033Z,101243.38
2022-08-04T02:34:07.185Z,101250.88
2022-08-04T02:36:38.775Z,101250.31
2022-08-04T02:39:08.600Z,101244.56
2022-08-04T02:41:43.074Z,101236.69
2022-08-04T02:44:16.910Z,101247.50
2022-08-04T02:46:56.094Z,101233.41
2022-08-04T02:49:28.330Z,101222.16
2022-08-04T02:52:04.389Z,101220.16
2022-08-04T02:54:40.882Z,101228.06
2022-08-04T02:57:14.765Z,101219.53
2022-08-04T03:00:03.524Z,101214.97
2022-08-04T03:02:52.005Z,101214.13
2022-08-04T03:05:23.251Z,101211.09
2022-08-04T03:08:29.939Z,101210.59
2022-08-04T03:11:24.215Z,101211.59
2022-08-04T03:14:25.595Z,101206.84
2022-08-04T03:17:52.630Z,101200.25
2022-08-04T03:21:04.733Z,101191.34
2022-08-04T03:24:21.644Z,101196.78
2022-08-04T03:27:21.213Z,101197.63
2022-08-04T03:30:15.319Z,101193.38
2022-08-04T03:33:21.905Z,101194.19
2022-08-04T03:36:32.482Z,101193.47
2022-08-04T03:39:32.862Z,101190.78
2022-08-04T03:42:25.502Z,101185.25
2022-08-04T03:45:36.205Z,101188.94
2022-08-04T03:48:39.416Z,101186.13
2022-08-04T03:51:53.291Z,101187.84
2022-08-04T03:54:45.186Z,101180.63
2022-08-04T03:57:43.074Z,101181.50
2022-08-04T04:00:15.181Z,101177.44
2022-08-04T04:03:28.701Z,101180.63
2022-08-04T04:06:38.576Z,101170.66
2022-08-04T04:09:57.694Z,101179.28
2022-08-04T04:13:03.566Z,101168.88
2022-08-04T04:15:52.143Z,101174.59
2022-08-04T04:18:42.317Z,101174.09
2022-08-04T04:21:30.298Z,101168.75
2022-08-04T04:24:33.760Z,101175.03
2022-08-04T04:27:11.771Z,101173.00
2022-08-04T04:30:06.651Z,101170.97
2022-08-04T04:32:47.845Z,101166.44
2022-08-04T04:35:33.669Z,101170.50
2022-08-04T04:38:27.423Z,101172.25
2022-08-04T04:41:00.950Z,101174.16
2022-08-04T04:43:52.288Z,101172.22
2022-08-04T04:46:31.204Z,101175.16
2022-08-04T04:49:06.712Z,101169.59
2022-08-04T04:51:43.326Z,101170.00
2022-08-04T04:54:23.802Z,101172.94
2022-08-04T04:57:04.364Z,101170.75
2022-08-04T04:59:35.664Z,101172.53
2022-08-04T05:02:33.272Z,101177.09
2022-08-04T05:05:31.942Z,101177.50
2022-08-04T05:08:43.746Z,101182.75
2022-08-04T05:11:40.986Z,101182.00
2022-08-04T05:14:38.227Z,101181.94
2022-08-04T05:17:13.553Z,101180.75
2022-08-04T05:19:52.742Z,101179.47
2022-08-04T05:22:26.460Z,101174.50
2022-08-04T05:25:05.652Z,101183.25
2022-08-04T05:27:40.247Z,101180.81
2022-08-04T05:30:11.872Z,101177.50
2022-08-04T05:32:47.689Z,101175.66
2022-08-04T05:35:49.795Z,101187.91
2022-08-04T05:38:23.321Z,101183.59
2022-08-04T05:40:53.591Z,101186.56
2022-08-04T05:43:26.018Z,101189.63
2022-08-04T05:45:59.247Z,101190.91
2022-08-04T05:48:32.534Z,101187.09
2022-08-04T05:51:05.003Z,101184.47
2022-08-04T05:53:37.692Z,101186.59
2022-08-04T05:56:08.719Z,101190.47
2022-08-04T05:58:38.916Z,101184.63
2022-08-04T06:01:10.870Z,101179.56
2022-08-04T06:03:43.041Z,101181.72
2022-08-04T06:06:17.389Z,101178.72
2022-08-04T06:08:49.756Z,101177.41
2022-08-04T06:11:24.158Z,101176.63
2022-08-04T06:13:59.376Z,101178.72
2022-08-04T06:16:39.435Z,101177.50
2022-08-04T06:20:02.192Z,101189.31
2022-08-04T06:22:06.024Z,101176.47
2022-08-04T06:24:39.246Z,101178.13
2022-08-04T06:27:11.505Z,101172.88
2022-08-04T06:29:51.250Z,101176.06
2022-08-04T06:32:41.486Z,101181.16
2022-08-04T06:35:14.174Z,101181.16
2022-08-04T06:37:44.505Z,101180.34
2022-08-04T06:40:30.611Z,101171.28
2022-08-04T06:43:03.096Z,101169.84
2022-08-04T06:45:34.369Z,101170.94
2022-08-04T06:48:05.990Z,101175.78
2022-08-04T06:51:25.745Z,101163.19
2022-08-04T06:53:25.930Z,101156.59
2022-08-04T06:55:54.956Z,101158.72
2022-08-04T06:58:24.181Z,101160.47
2022-08-04T07:00:53.131Z,101155.06
2022-08-04T07:03:23.721Z,101161.75
2022-08-04T07:05:53.508Z,101161.09
2022-08-04T07:08:22.790Z,101160.13
2022-08-04T07:10:50.902Z,101159.94
2022-08-04T07:13:19.805Z,101161.09
2022-08-04T07:15:49.882Z,101148.53
2022-08-04T07:18:18.394Z,101143.63
2022-08-04T07:20:48.347Z,101146.59
2022-08-04T07:23:19.761Z,101148.22
2022-08-04T07:26:00.615Z,101146.81
2022-08-04T07:28:41.671Z,101150.53
2022-08-04T07:31:32.024Z,101151.63
2022-08-04T07:34:20.694Z,101152.66
2022-08-04T07:36:55.698Z,101150.84
2022-08-04T07:39:29.565Z,101148.44
2022-08-04T07:42:01.188Z,101150.75
2022-08-04T07:44:31.276Z,101157.59
2022-08-04T07:47:00.250Z,101152.03
2022-08-04T07:54:14.233Z,101154.72
2022-08-04T07:56:45.022Z,101155.84
2022-08-04T07:59:13.217Z,101155.66
2022-08-04T08:01:44.376Z,101154.63
2022-08-04T08:04:18.190Z,101158.28
2022-08-04T08:06:49.259Z,101154.44
2022-08-04T08:09:24.032Z,101152.22
2022-08-04T08:12:35.761Z,101166.25
2022-08-04T08:14:50.315Z,101170.94
2022-08-04T08:17:58.501Z,101162.06
2022-08-04T08:20:35.608Z,101164.00
2022-08-04T08:23:33.620Z,101164.31
2022-08-04T08:26:05.773Z,101158.41
2022-08-04T08:28:38.339Z,101162.03
2022-08-04T08:31:16.434Z,101168.47
2022-08-04T08:33:49.709Z,101158.09
2022-08-04T08:36:29.963Z,101148.63
2022-08-04T08:39:14.414Z,101149.78
2022-08-04T08:42:16.893Z,101161.00
2022-08-04T08:45:44.309Z,101149.88
2022-08-04T08:48:51.602Z,101156.88
2022-08-04T08:51:46.817Z,101160.50
2022-08-04T08:54:39.925Z,101161.97
2022-08-04T08:57:35.732Z,101169.25
2022-08-04T09:00:17.375Z,101160.50
2022-08-04T09:03:14.947Z,101172.56
2022-08-04T09:06:14.509Z,101173.75
2022-08-04T09:09:08.080Z,101166.47
2022-08-04T09:11:58.327Z,101176.44
2022-08-04T09:14:37.319Z,101173.16
2022-08-04T09:17:12.623Z,101180.94
2022-08-04T09:19:47.336Z,101175.94
2022-08-04T09:22:28.048Z,101173.47
2022-08-04T09:25:04.807Z,101190.81
2022-08-04T09:27:45.023Z,101181.28
2022-08-04T09:30:19.025Z,101178.75
2022-08-04T09:32:59.173Z,101191.88
2022-08-04T09:35:39.343Z,101190.78
2022-08-04T09:38:20.521Z,101184.63
2022-08-04T09:40:56.953Z,101186.59
2022-08-04T09:44:42.753Z,101183.78
2022-08-04T09:46:43.248Z,101188.56
2022-08-04T09:50:14.393Z,101184.69
2022-08-04T09:52:56.232Z,101186.03
2022-08-04T09:55:53.420Z,101186.91
2022-08-04T09:58:40.895Z,101187.75
2022-08-04T10:01:11.613Z,101187.44
2022-08-04T10:03:46.860Z,101190.84
2022-08-04T10:06:35.622Z,101187.28
2022-08-04T10:09:30.660Z,101182.25
2022-08-04T10:12:18.639Z,101181.44
2022-08-04T10:14:55.894Z,101187.59
2022-08-04T10:17:43.616Z,101188.75
2022-08-04T10:20:45.958Z,101189.91
2022-08-04T10:23:55.091Z,101184.41
2022-08-04T10:26:39.489Z,101194.50
2022-08-04T10:29:12.207Z,101187.91
2022-08-04T10:31:47.606Z,101192.56
2022-08-04T10:34:23.704Z,101198.47
2022-08-04T10:37:08.904Z,101190.41
2022-08-04T10:40:06.156Z,101202.13
2022-08-04T10:42:44.027Z,101186.78
2022-08-04T10:45:21.287Z,101187.91
2022-08-04T10:48:01.778Z,101186.25
2022-08-04T10:50:33.308Z,101191.56
2022-08-04T10:53:14.972Z,101202.53
2022-08-04T10:56:06.424Z,101195.81
2022-08-04T10:58:47.101Z,101202.81
2022-08-04T11:02:01.361Z,101196.94
2022-08-04T11:04:29.795Z,101199.72
2022-08-04T11:07:00.524Z,101196.97
2022-08-04T11:09:34.757Z,101200.84
2022-08-04T11:12:13.482Z,101200.56
2022-08-04T11:14:57.316Z,101206.47
2022-08-04T11:17:34.595Z,101208.72
2022-08-04T11:23:17.020Z,101212.97
2022-08-04T11:25:59.006Z,101225.03
2022-08-04T11:28:41.664Z,101221.63
2022-08-04T11:31:16.997Z,101219.38
2022-08-04T11:33:58.967Z,101207.94
2022-08-04T11:36:37.477Z,101211.84
2022-08-04T11:39:14.941Z,101218.91
2022-08-04T11:41:56.229Z,101220.31
2022-08-04T11:44:31.493Z,101229.00
2022-08-04T11:47:07.416Z,101232.34
2022-08-04T11:49:56.457Z,101245.81
2022-08-04T11:52:30.798Z,101246.66
2022-08-04T11:55:05.584Z,101246.38
2022-08-04T11:57:38.925Z,101251.72
2022-08-04T12:00:12.609Z,101259.25
2022-08-04T12:03:13.574Z,101261.00
2022-08-04T12:05:54.165Z,101255.66
2022-08-04T12:08:39.134Z,101271.59
2022-08-04T12:11:23.184Z,101283.09
2022-08-04T12:14:06.482Z,101276.59
2022-08-04T12:16:42.027Z,101285.34
2022-08-04T12:19:20.589Z,101295.03
2022-08-04T12:21:57.035Z,101295.28
2022-08-04T12:24:34.047Z,101292.47
2022-08-04T12:27:16.138Z,101295.28
2022-08-04T12:30:59.315Z,101303.66
2022-08-04T12:32:53.776Z,101296.91
2022-08-04T12:35:31.557Z,101302.75
2022-08-04T12:38:07.458Z,101289.28
2022-08-04T12:40:44.585Z,101306.84
2022-08-04T12:43:23.541Z,101319.94
2022-08-04T12:46:00.029Z,101312.34
2022-08-04T12:48:32.485Z,101313.44
2022-08-04T12:52:06.887Z,101320.50
2022-08-04T12:54:09.388Z,101327.09
2022-08-04T12:56:41.871Z,101342.31
2022-08-04T12:59:14.841Z,101352.28
2022-08-04T13:02:11.068Z,101347.50
2022-08-04T13:04:51.552Z,101343.88
2022-08-04T13:07:26.791Z,101350.13
2022-08-04T13:09:57.419Z,101348.44
2022-08-04T13:12:32.283Z,101338.38
2022-08-04T13:15:18.127Z,101354.69
2022-08-04T13:17:57.334Z,101349.09
2022-08-04T13:20:34.755Z,101351.84
2022-08-04T13:23:11.573Z,101361.94
2022-08-04T13:26:43.660Z,101359.72
2022-08-04T13:28:42.847Z,101361.75
2022-08-04T13:31:19.154Z,101360.97
2022-08-04T13:33:57.290Z,101359.38
2022-08-04T13:36:31.246Z,101364.47
2022-08-04T13:39:07.870Z,101344.63
2022-08-04T13:41:42.613Z,101341.31
2022-08-04T13:44:19.575Z,101336.31
2022-08-04T13:46:53.796Z,101330.75
2022-08-04T13:49:42.520Z,101327.66
2022-08-04T13:52:14.574Z,101332.47
2022-08-04T13:54:53.513Z,101324.34
2022-08-04T13:57:29.933Z,101318.94
2022-08-04T14:00:05.292Z,101318.91
2022-08-04T14:02:46.576Z,101318.59
2022-08-04T14:05:27.450Z,101325.34
2022-08-04T14:08:07.511Z,101321.91
2022-08-04T14:10:40.302Z,101320.63
2022-08-04T14:13:12.910Z,101325.06
2022-08-04T14:16:01.485Z,101324.41
2022-08-04T14:18:33.993Z,101335.41
2022-08-04T14:21:07.170Z,101331.69
2022-08-04T14:23:53.068Z,101309.09
2022-08-04T14:26:33.161Z,101313.56
2022-08-04T14:29:28.746Z,101314.91
2022-08-04T14:32:12.957Z,101321.56
2022-08-04T14:34:53.710Z,101328.72
2022-08-04T14:37:25.418Z,101323.47
2022-08-04T14:40:08.271Z,101326.38
2022-08-04T14:42:55.138Z,101324.22
2022-08-04T14:45:34.463Z,101325.06
2022-08-04T14:48:09.969Z,101333.19
2022-08-04T14:50:40.592Z,101337.38
2022-08-04T14:53:15.110Z,101332.06
2022-08-04T14:55:51.881Z,101333.50
2022-08-04T14:58:34.355Z,101335.72
2022-08-04T15:01:12.287Z,101340.69
2022-08-04T15:03:50.425Z,101338.09
2022-08-04T15:06:28.928Z,101340.28
2022-08-04T15:09:09.673Z,101344.16
2022-08-04T15:11:43.576Z,101337.63
2022-08-04T15:14:37.177Z,101341.00
2022-08-04T15:17:11.461Z,101333.84
2022-08-04T15:19:55.583Z,101336.06
2022-08-04T15:22:27.700Z,101324.91
2022-08-04T15:25:02.114Z,101332.38
2022-08-04T15:27:36.086Z,101325.56
2022-08-04T15:30:10.445Z,101332.28
2022-08-04T15:32:43.852Z,101336.22
2022-08-04T15:35:26.538Z,101349.72
2022-08-04T15:38:04.046Z,101337.91
2022-08-04T15:40:46.907Z,101339.38
2022-08-04T15:43:39.763Z,101348.53
2022-08-04T15:46:44.308Z,101339.91
2022-08-04T15:48:56.518Z,101348.63
2022-08-04T15:51:30.377Z,101347.38
2022-08-04T15:54:27.869Z,101353.66
2022-08-04T15:57:02.834Z,101352.41
2022-08-04T15:59:57.260Z,101354.72
2022-08-04T16:02:43.694Z,101357.31
2022-08-04T16:05:45.251Z,101363.28
2022-08-04T16:08:17.609Z,101355.72
2022-08-04T16:10:50.356Z,101357.97
2022-08-04T16:13:22.387Z,101363.06
2022-08-04T16:15:53.270Z,101367.53
2022-08-04T16:18:40.304Z,101375.69
2022-08-04T16:21:19.742Z,101376.78
2022-08-04T16:24:10.101Z,101381.28
2022-08-04T16:26:54.201Z,101384.13
2022-08-04T16:29:34.586Z,101384.13
2022-08-04T16:32:25.426Z,101376.25
2022-08-04T16:34:57.025Z,101386.66
2022-08-04T16:37:30.817Z,101393.41
2022-08-04T16:40:34.477Z,101404.63
2022-08-04T16:43:08.128Z,101398.94
2022-08-04T16:45:59.859Z,101397.44
2022-08-04T16:48:30.139Z,101396.00
2022-08-04T16:51:05.267Z,101386.41
2022-08-04T16:53:53.433Z,101385.75
2022-08-04T16:56:33.407Z,101394.19
2022-08-04T16:59:10.309Z,101394.19
2022-08-04T17:01:47.469Z,101393.63
2022-08-04T17:04:15.750Z,101403.28
2022-08-04T17:06:47.527Z,101414.56
2022-08-04T17:09:17.967Z,101413.47
2022-08-04T17:11:48.410Z,101414.59
2022-08-04T17:14:22.962Z,101423.63
2022-08-04T17:16:54.482Z,101425.34
2022-08-04T17:19:25.727Z,101421.72
2022-08-04T17:22:02.956Z,101424.84
2022-08-04T17:24:33.333Z,101413.34
2022-08-04T17:27:02.094Z,101415.00
2022-08-04T17:29:44.090Z,101418.94
2022-08-04T17:32:21.285Z,101412.81
2022-08-04T17:34:50.366Z,101425.44
2022-08-04T17:37:52.059Z,101425.72
2022-08-04T17:40:13.191Z,101427.41
2022-08-04T17:42:42.450Z,101417.84
2022-08-04T17:45:51.402Z,101427.09
2022-08-04T17:48:10.129Z,101428.75
2022-08-04T17:50:43.562Z,101439.41
2022-08-04T17:53:13.364Z,101439.13
2022-08-04T17:55:47.571Z,101444.75
2022-08-04T18:01:24.201Z,101439.97
2022-08-04T18:03:58.155Z,101439.09
2022-08-04T18:06:27.155Z,101438.25
2022-08-04T18:08:59.374Z,101428.41
2022-08-04T18:11:53.644Z,101439.09
2022-08-04T18:14:25.968Z,101441.56
2022-08-04T18:16:57.630Z,101446.88
2022-08-04T18:19:31.451Z,101445.44
2022-08-04T18:22:01.176Z,101449.94
2022-08-04T18:24:35.950Z,101444.84
2022-08-04T18:27:21.076Z,101447.09
2022-08-04T18:30:14.593Z,101445.09
2022-08-04T18:32:51.269Z,101458.03
2022-08-04T18:35:30.690Z,101447.31
2022-08-04T18:38:23.715Z,101450.66
2022-08-04T18:40:53.605Z,101451.22
2022-08-04T18:43:28.706Z,101459.94
2022-08-04T18:46:14.619Z,101463.84
2022-08-04T18:48:52.197Z,101454.56
2022-08-04T18:51:24.982Z,101461.53
2022-08-04T18:54:02.009Z,101469.78
2022-08-04T18:56:32.885Z,101475.94
2022-08-04T18:59:03.686Z,101485.63
2022-08-04T19:02:13.275Z,101480.44
2022-08-04T19:04:33.058Z,101479.09
2022-08-04T19:07:29.142Z,101491.69
2022-08-04T19:09:57.931Z,101496.50
2022-08-04T19:12:28.397Z,101498.22
2022-08-04T19:14:58.284Z,101510.31
2022-08-04T19:17:57.311Z,101503.72
2022-08-04T19:20:24.331Z,101498.69
2022-08-04T19:24:27.717Z,101509.00
2022-08-04T19:26:01.241Z,101515.81
2022-08-04T19:28:34.907Z,101507.47
2022-08-04T19:31:05.057Z,101501.44
2022-08-04T19:33:59.543Z,101504.84
2022-08-04T19:36:28.014Z,101508.97
2022-08-04T19:38:59.302Z,101519.75
2022-08-04T19:41:29.473Z,101520.75
2022-08-04T19:43:59.273Z,101524.47
2022-08-04T19:46:28.881Z,101528.47
2022-08-04T19:48:59.080Z,101527.47
2022-08-04T19:51:30.046Z,101529.69
2022-08-04T19:56:48.672Z,101517.25
2022-08-04T19:59:16.785Z,101518.19
2022-08-04T20:01:46.085Z,101521.72
2022-08-04T20:04:14.940Z,101528.16
2022-08-04T20:06:43.642Z,101517.13
2022-08-04T20:09:26.742Z,101520.66
2022-08-04T20:11:56.328Z,101521.88
2022-08-04T20:14:32.737Z,101535.91
2022-08-04T20:17:02.829Z,101535.19
2022-08-04T20:19:31.106Z,101539.63
2022-08-04T20:22:00.060Z,101544.34
2022-08-04T20:24:39.170Z,101538.13
2022-08-04T20:27:15.448Z,101544.19
2022-08-04T20:29:48.364Z,101532.94
2022-08-04T20:32:19.242Z,101548.31
2022-08-04T20:34:47.682Z,101547.78
2022-08-04T20:37:16.107Z,101550.78
2022-08-04T20:39:54.864Z,101538.03
2022-08-04T20:42:33.633Z,101544.63
2022-08-04T20:45:04.795Z,101539.66
2022-08-04T20:47:40.389Z,101542.31
2022-08-04T20:50:13.655Z,101547.91
2022-08-04T20:52:53.253Z,101560.56
2022-08-04T20:55:29.422Z,101549.34
2022-08-04T20:58:04.142Z,101554.38
2022-08-04T21:00:36.704Z,101556.78
2022-08-04T21:03:09.929Z,101556.66
2022-08-04T21:05:39.397Z,101553.88
2022-08-04T21:08:11.963Z,101547.91
2022-08-04T21:10:41.896Z,101551.56
2022-08-04T21:13:20.578Z,101550.50
2022-08-04T21:15:59.318Z,101545.41
2022-08-04T21:18:31.053Z,101543.63
2022-08-04T21:21:02.787Z,101540.53
2022-08-04T21:23:35.654Z,101556.19
2022-08-04T21:26:23.394Z,101548.94
2022-08-04T21:28:58.339Z,101555.34
2022-08-04T21:31:30.530Z,101555.34
2022-08-04T21:34:09.823Z,101564.13
2022-08-04T21:36:44.540Z,101559.09
2022-08-04T21:39:14.851Z,101566.41
2022-08-04T21:42:20.954Z,101575.94
2022-08-04T21:44:37.484Z,101585.13
2022-08-04T21:47:16.874Z,101583.81
2022-08-04T21:49:57.473Z,101584.22
2022-08-04T21:52:29.342Z,101583.94
2022-08-04T21:55:02.487Z,101595.09
2022-08-04T21:57:38.431Z,101608.00
2022-08-04T22:00:18.527Z,101601.59
2022-08-04T22:02:53.329Z,101594.56
2022-08-04T22:05:25.521Z,101592.34
2022-08-04T22:08:01.948Z,101580.91
2022-08-04T22:10:33.348Z,101566.06
2022-08-04T22:13:07.902Z,101570.03
2022-08-04T22:16:05.189Z,101564.53
2022-08-04T22:18:30.682Z,101576.97
2022-08-04T22:21:01.217Z,101578.38
2022-08-04T22:23:44.919Z,101579.75
2022-08-04T22:26:20.141Z,101591.69
2022-08-04T22:29:00.965Z,101596.50
2022-08-04T22:31:56.011Z,101604.38
2022-08-04T22:34:30.506Z,101605.50
2022-08-04T22:37:00.809Z,101602.19
2022-08-04T22:39:29.168Z,101602.97
2022-08-04T22:42:03.746Z,101589.00
2022-08-04T22:44:36.725Z,101594.34
2022-08-04T22:47:20.457Z,101601.75
2022-08-04T22:50:13.807Z,101604.31
2022-08-04T22:52:56.075Z,101604.06
2022-08-04T22:55:25.427Z,101613.56
2022-08-04T22:58:05.546Z,101612.88
2022-08-04T23:00:40.116Z,101607.22
2022-08-04T23:03:11.288Z,101605.25
2022-08-04T23:06:04.413Z,101589.69
2022-08-04T23:08:36.354Z,101593.06
2022-08-04T23:11:08.787Z,101592.84
2022-08-04T23:13:40.798Z,101585.66
2022-08-04T23:16:15.166Z,101596.22
2022-08-04T23:18:49.478Z,101580.81
2022-08-04T23:21:24.133Z,101569.50
2022-08-04T23:24:02.297Z,101562.28
2022-08-04T23:26:35.203Z,101570.38
2022-08-04T23:29:06.946Z,101574.63
2022-08-04T23:31:41.667Z,101569.91
2022-08-04T23:34:31.221Z,101587.13
2022-08-04T23:37:02.051Z,101588.84
2022-08-04T23:40:04.243Z,101582.44
2022-08-04T23:42:20.949Z,101579.06
2022-08-04T23:44:50.528Z,101567.38
2022-08-04T23:48:15.165Z,101560.47
2022-08-04T23:50:09.776Z,101567.66
2022-08-04T23:52:37.783Z,101572.09
2022-08-04T23:55:07.557Z,101575.63
2022-08-04T23:58:05.860Z,101572.97
